createdAt,value
2023-05-06T00:00:19.953Z,2.97
2023-05-06T00:02:47.129Z,2.92
2023-05-06T00:05:14.242Z,2.95
2023-05-06T00:07:41.136Z,2.50
2023-05-06T00:10:21.325Z,3.00
2023-05-06T00:12:47.846Z,2.70
2023-05-06T00:15:14.323Z,3.03
2023-05-06T00:17:40.881Z,2.72
2023-05-06T00:20:09.555Z,2.70
2023-05-06T00:22:36.176Z,3.00
2023-05-06T00:25:04.844Z,3.10
2023-05-06T00:27:31.298Z,2.70
2023-05-06T00:29:58.345Z,2.78
2023-05-06T00:32:24.850Z,2.60
2023-05-06T00:34:51.440Z,2.88
2023-05-06T00:37:17.877Z,3.00
2023-05-06T00:39:45.433Z,3.25
2023-05-06T00:42:11.893Z,3.08
2023-05-06T00:44:38.366Z,3.08
2023-05-06T00:47:05.019Z,2.60
2023-05-06T00:49:32.001Z,3.15
2023-05-06T00:51:59.640Z,2.65
2023-05-06T00:54:26.911Z,2.40
2023-05-06T00:56:54.348Z,2.75
2023-05-06T00:59:22.605Z,2.78
2023-05-06T01:01:55.086Z,2.50
2023-05-06T01:04:23.930Z,3.03
2023-05-06T01:07:06.270Z,2.70
2023-05-06T01:09:38.703Z,2.88
2023-05-06T01:12:17.144Z,3.40
2023-05-06T01:15:08.828Z,3.17
2023-05-06T01:20:12.000Z,3.60
2023-05-06T01:22:42.132Z,3.38
2023-05-06T01:25:21.297Z,3.30
2023-05-06T01:27:53.777Z,3.88
2023-05-06T01:30:30.317Z,3.15
2023-05-06T01:33:08.919Z,3.00
2023-05-06T01:35:58.982Z,3.00
2023-05-06T01:38:37.958Z,3.42
2023-05-06T01:41:05.906Z,3.15
2023-05-06T01:43:37.718Z,3.55
2023-05-06T01:46:06.189Z,3.28
2023-05-06T01:48:36.297Z,4.50
2023-05-06T01:51:03.110Z,3.25
2023-05-06T01:53:29.591Z,3.70
2023-05-06T01:55:56.062Z,3.00
2023-05-06T01:58:22.517Z,3.28
2023-05-06T02:00:48.968Z,2.92
2023-05-06T02:03:15.585Z,3.40
2023-05-06T02:05:42.148Z,3.17
2023-05-06T02:08:08.637Z,2.97
2023-05-06T02:10:35.080Z,2.75
2023-05-06T02:13:01.675Z,2.63
2023-05-06T02:15:28.242Z,2.80
2023-05-06T02:18:01.603Z,3.00
2023-05-06T02:20:28.116Z,3.05
2023-05-06T02:23:00.529Z,2.80
2023-05-06T02:25:27.580Z,2.45
2023-05-06T02:27:55.089Z,2.60
2023-05-06T02:30:21.561Z,2.58
2023-05-06T02:32:48.152Z,3.97
2023-05-06T02:35:14.628Z,3.97
2023-05-06T02:37:41.106Z,3.15
2023-05-06T02:40:08.975Z,3.17
2023-05-06T02:42:35.940Z,3.88
2023-05-06T02:45:02.645Z,3.92
2023-05-06T02:47:29.478Z,3.88
2023-05-06T02:50:05.976Z,4.75
2023-05-06T02:52:33.400Z,3.33
2023-05-06T02:55:00.463Z,3.45
2023-05-06T02:57:27.041Z,3.28
2023-05-06T02:59:54.621Z,2.90
2023-05-06T03:02:21.190Z,3.40
2023-05-06T03:04:48.789Z,3.05
2023-05-06T03:07:15.278Z,3.15
2023-05-06T03:09:41.774Z,2.85
2023-05-06T03:12:08.278Z,4.03
2023-05-06T03:14:35.742Z,3.33
2023-05-06T03:17:02.188Z,3.40
2023-05-06T03:19:28.650Z,3.22
2023-05-06T03:21:55.151Z,3.00
2023-05-06T03:24:21.763Z,3.00
2023-05-06T03:26:48.279Z,3.10
2023-05-06T03:29:14.742Z,3.22
2023-05-06T03:31:41.920Z,3.70
2023-05-06T03:34:10.837Z,3.90
2023-05-06T03:36:37.269Z,3.92
2023-05-06T03:39:03.779Z,3.40
2023-05-06T03:41:34.426Z,3.78
2023-05-06T03:44:01.190Z,4.20
2023-05-06T03:46:34.774Z,3.80
2023-05-06T03:49:02.803Z,3.83
2023-05-06T03:51:29.607Z,3.78
2023-05-06T03:53:56.538Z,4.10
2023-05-06T03:56:24.162Z,3.88
2023-05-06T03:58:50.698Z,2.97
2023-05-06T04:01:18.475Z,3.33
2023-05-06T04:03:45.067Z,3.33
2023-05-06T04:06:11.660Z,3.67
2023-05-06T04:08:38.106Z,3.40
2023-05-06T04:11:06.156Z,4.13
2023-05-06T04:13:39.648Z,4.25
2023-05-06T04:16:06.474Z,3.95
2023-05-06T04:18:34.291Z,4.45
2023-05-06T04:21:00.994Z,3.70
2023-05-06T04:23:27.666Z,4.03
2023-05-06T04:25:54.186Z,3.78
2023-05-06T04:28:20.784Z,3.60
2023-05-06T04:30:48.263Z,3.70
2023-05-06T04:33:16.840Z,6.85
2023-05-06T04:35:53.444Z,4.80
2023-05-06T04:38:21.824Z,3.92
2023-05-06T04:40:53.637Z,5.50
2023-05-06T04:43:20.716Z,4.57
2023-05-06T04:45:54.331Z,5.10
2023-05-06T04:48:22.380Z,5.03
2023-05-06T04:50:55.982Z,6.22
2023-05-06T04:53:22.493Z,6.97
2023-05-06T04:55:48.962Z,6.70
2023-05-06T04:58:15.658Z,5.50
2023-05-06T05:00:42.460Z,4.78
2023-05-06T05:03:09.036Z,5.25
2023-05-06T05:05:35.637Z,4.72
2023-05-06T05:08:02.162Z,5.03
2023-05-06T05:10:36.672Z,5.93
2023-05-06T05:13:03.189Z,5.20
2023-05-06T05:15:29.695Z,5.35
2023-05-06T05:17:58.746Z,6.20
2023-05-06T05:20:25.377Z,5.85
2023-05-06T05:22:52.881Z,5.60
2023-05-06T05:25:19.336Z,6.30
2023-05-06T05:27:49.959Z,6.88
2023-05-06T05:30:16.610Z,6.23
2023-05-06T05:32:50.758Z,6.38
2023-05-06T05:35:19.333Z,5.32
2023-05-06T05:37:45.817Z,6.88
2023-05-06T05:40:13.085Z,5.65
2023-05-06T05:42:40.676Z,5.82
2023-05-06T05:45:08.711Z,6.30
2023-05-06T05:47:35.580Z,6.10
2023-05-06T05:50:02.154Z,5.78
2023-05-06T05:52:28.688Z,5.97
2023-05-06T05:54:55.236Z,5.93
2023-05-06T05:57:28.898Z,5.53
2023-05-06T05:59:56.412Z,7.45
2023-05-06T06:02:23.185Z,5.18
2023-05-06T06:04:57.731Z,7.85
2023-05-06T06:07:24.849Z,8.15
2023-05-06T06:09:51.658Z,6.72
2023-05-06T06:12:20.164Z,6.68
2023-05-06T06:14:48.142Z,5.63
2023-05-06T06:17:15.303Z,4.85
2023-05-06T06:19:47.111Z,5.38
2023-05-06T06:22:13.678Z,5.78
2023-05-06T06:24:40.239Z,5.32
2023-05-06T06:27:25.210Z,5.72
2023-05-06T06:29:53.676Z,4.85
2023-05-06T06:32:22.262Z,6.85
2023-05-06T06:34:50.741Z,5.22
2023-05-06T06:37:17.209Z,4.97
2023-05-06T06:39:43.782Z,4.65
2023-05-06T06:42:16.340Z,5.13
2023-05-06T06:44:42.834Z,4.88
2023-05-06T06:47:09.319Z,5.18
2023-05-06T06:49:40.333Z,5.00
2023-05-06T06:52:06.793Z,4.72
2023-05-06T06:54:33.267Z,6.25
2023-05-06T06:57:00.154Z,4.38
2023-05-06T06:59:26.740Z,4.97
2023-05-06T07:01:53.226Z,5.75
2023-05-06T07:04:19.822Z,5.10
2023-05-06T07:06:46.444Z,4.28
2023-05-06T07:09:13.339Z,4.15
2023-05-06T07:11:41.837Z,4.35
2023-05-06T07:14:08.776Z,4.80
2023-05-06T07:16:41.865Z,4.80
2023-05-06T07:19:20.441Z,3.90
2023-05-06T07:21:48.930Z,4.10
2023-05-06T07:24:15.466Z,3.92
2023-05-06T07:26:42.114Z,3.63
2023-05-06T07:29:08.765Z,3.90
2023-05-06T07:31:42.191Z,3.83
2023-05-06T07:34:08.713Z,3.67
2023-05-06T07:36:40.509Z,3.35
2023-05-06T07:39:07.708Z,3.35
2023-05-06T07:41:34.509Z,3.40
2023-05-06T07:44:01.409Z,3.28
2023-05-06T07:46:28.201Z,3.50
2023-05-06T07:48:54.962Z,3.08
2023-05-06T07:51:21.797Z,3.03
2023-05-06T07:53:50.453Z,3.20
2023-05-06T07:56:23.078Z,2.80
2023-05-06T07:58:51.564Z,2.80
2023-05-06T08:01:18.217Z,2.53
2023-05-06T08:03:44.839Z,2.05
2023-05-06T08:06:11.496Z,2.25
2023-05-06T08:08:37.979Z,2.10
2023-05-06T08:11:04.768Z,2.30
2023-05-06T08:13:33.439Z,2.25
2023-05-06T08:16:02.272Z,2.80
2023-05-06T08:18:28.900Z,2.28
2023-05-06T08:20:55.702Z,2.55
2023-05-06T08:23:26.204Z,2.25
2023-05-06T08:25:52.699Z,2.70
2023-05-06T08:28:19.740Z,2.67
2023-05-06T08:30:48.391Z,2.00
2023-05-06T08:33:14.938Z,2.13
2023-05-06T08:35:42.518Z,1.65
2023-05-06T08:38:09.120Z,1.88
2023-05-06T08:40:43.114Z,1.98
2023-05-06T08:43:19.982Z,2.22
2023-05-06T08:45:52.334Z,1.90
2023-05-06T08:48:18.933Z,2.03
2023-05-06T08:50:47.549Z,2.53
2023-05-06T08:53:14.201Z,1.88
2023-05-06T08:55:42.570Z,1.98
2023-05-06T08:58:14.080Z,2.20
2023-05-06T09:00:40.719Z,1.65
2023-05-06T09:03:07.392Z,1.45
2023-05-06T09:05:33.977Z,1.75
2023-05-06T09:08:00.458Z,2.30
2023-05-06T09:10:33.093Z,1.80
2023-05-06T09:12:59.771Z,1.95
2023-05-06T09:15:27.086Z,2.08
2023-05-06T09:17:55.315Z,2.00
2023-05-06T09:20:21.959Z,2.28
2023-05-06T09:22:49.059Z,2.35
2023-05-06T09:25:15.628Z,2.08
2023-05-06T09:27:42.085Z,2.08
2023-05-06T09:30:12.446Z,2.08
2023-05-06T09:32:40.507Z,1.20
2023-05-06T09:35:08.626Z,1.70
2023-05-06T09:37:35.415Z,1.65
2023-05-06T09:40:01.988Z,1.75
2023-05-06T09:42:30.146Z,1.70
2023-05-06T09:45:01.547Z,1.30
2023-05-06T09:47:33.746Z,2.10
2023-05-06T09:50:01.592Z,1.80
2023-05-06T09:52:29.039Z,1.90
2023-05-06T09:54:55.817Z,1.80
2023-05-06T09:57:22.965Z,2.20
2023-05-06T09:59:52.263Z,1.70
2023-05-06T10:02:20.093Z,1.80
2023-05-06T10:04:49.086Z,1.50
2023-05-06T10:07:19.722Z,1.63
2023-05-06T10:09:48.840Z,1.60
2023-05-06T10:12:16.720Z,1.70
2023-05-06T10:14:54.616Z,1.52
2023-05-06T10:17:25.868Z,1.63
2023-05-06T10:19:57.119Z,2.00
2023-05-06T10:22:49.384Z,1.60
2023-05-06T10:25:38.095Z,1.20
2023-05-06T10:28:07.594Z,1.40
2023-05-06T10:30:44.947Z,1.73
2023-05-06T10:33:15.172Z,2.00
2023-05-06T10:35:41.810Z,1.85
2023-05-06T10:38:14.943Z,1.90
2023-05-06T10:40:42.403Z,1.55
2023-05-06T10:43:25.466Z,1.60
2023-05-06T10:46:12.309Z,1.95
2023-05-06T10:48:59.805Z,1.60
2023-05-06T10:51:28.251Z,1.75
2023-05-06T10:54:09.668Z,1.90
2023-05-06T10:56:38.236Z,1.85
2023-05-06T10:59:10.091Z,1.50
2023-05-06T11:01:38.554Z,2.10
2023-05-06T11:04:11.051Z,2.20
2023-05-06T11:06:41.733Z,1.73
2023-05-06T11:09:27.466Z,1.88
2023-05-06T11:12:02.636Z,2.15
2023-05-06T11:14:35.571Z,2.53
2023-05-06T11:17:08.643Z,2.58
2023-05-06T11:19:37.699Z,2.70
2023-05-06T11:22:06.060Z,2.33
2023-05-06T11:24:40.248Z,2.50
2023-05-06T11:27:07.484Z,2.35
2023-05-06T11:29:33.999Z,1.80
2023-05-06T11:32:05.656Z,2.20
2023-05-06T11:34:32.929Z,2.50
2023-05-06T11:37:02.291Z,2.28
2023-05-06T11:39:33.216Z,2.13
2023-05-06T11:42:09.498Z,1.80
2023-05-06T11:44:38.782Z,1.65
2023-05-06T11:47:07.540Z,1.80
2023-05-06T11:49:42.757Z,2.10
2023-05-06T11:52:10.757Z,2.00
2023-05-06T11:54:48.442Z,1.60
2023-05-06T11:57:16.231Z,1.75
2023-05-06T11:59:43.748Z,1.75
2023-05-06T12:02:14.151Z,1.40
2023-05-06T12:04:42.941Z,1.43
2023-05-06T12:07:11.834Z,1.67
2023-05-06T12:09:49.191Z,1.65
2023-05-06T12:12:19.435Z,1.70
2023-05-06T12:14:49.243Z,1.30
2023-05-06T12:17:16.573Z,1.33
2023-05-06T12:19:43.055Z,1.42
2023-05-06T12:22:16.465Z,1.40
2023-05-06T12:24:43.038Z,1.33
2023-05-06T12:27:09.638Z,1.60
2023-05-06T12:29:36.246Z,1.70
2023-05-06T12:32:13.879Z,1.58
2023-05-06T12:34:41.623Z,1.85
2023-05-06T12:37:11.372Z,1.67
2023-05-06T12:39:39.381Z,1.58
2023-05-06T12:42:06.491Z,1.60
2023-05-06T12:44:33.581Z,1.00
2023-05-06T12:47:07.417Z,1.30
2023-05-06T12:49:59.416Z,1.10
2023-05-06T12:52:28.786Z,1.10
2023-05-06T12:54:55.769Z,1.30
2023-05-06T12:57:22.947Z,1.10
2023-05-06T12:59:49.951Z,1.45
2023-05-06T13:02:16.528Z,1.38
2023-05-06T13:04:44.283Z,1.20
2023-05-06T13:07:10.884Z,1.40
2023-05-06T13:09:37.365Z,1.50
2023-05-06T13:12:05.099Z,1.00
2023-05-06T13:14:33.617Z,1.40
2023-05-06T13:17:01.305Z,1.50
2023-05-06T13:19:32.900Z,1.20
2023-05-06T13:22:07.167Z,1.45
2023-05-06T13:24:33.665Z,1.55
2023-05-06T13:27:01.436Z,2.00
2023-05-06T13:29:29.538Z,1.83
2023-05-06T13:31:56.566Z,1.38
2023-05-06T13:34:23.108Z,1.10
2023-05-06T13:36:52.160Z,1.10
2023-05-06T13:39:18.644Z,1.23
2023-05-06T13:41:50.053Z,1.55
2023-05-06T13:44:17.276Z,1.13
2023-05-06T13:46:45.655Z,1.20
2023-05-06T13:49:14.609Z,1.25
2023-05-06T13:51:42.169Z,1.30
2023-05-06T13:54:08.652Z,1.20
2023-05-06T13:56:35.366Z,1.15
2023-05-06T13:59:01.866Z,1.23
2023-05-06T14:01:28.353Z,1.20
2023-05-06T14:03:54.868Z,1.10
2023-05-06T14:06:21.294Z,1.17
2023-05-06T14:08:47.993Z,0.90
2023-05-06T14:11:14.459Z,0.90
2023-05-06T14:13:41.902Z,0.90
2023-05-06T14:16:08.550Z,1.05
2023-05-06T14:18:35.227Z,0.90
2023-05-06T14:21:01.799Z,0.80
2023-05-06T14:23:28.248Z,0.80
2023-05-06T14:25:54.755Z,0.93
2023-05-06T14:28:21.218Z,0.95
2023-05-06T14:30:50.828Z,0.90
2023-05-06T14:33:17.289Z,0.90
2023-05-06T14:35:46.032Z,0.80
2023-05-06T14:38:12.539Z,0.93
2023-05-06T14:40:40.318Z,0.70
2023-05-06T14:43:07.604Z,0.90
2023-05-06T14:45:42.581Z,1.00
2023-05-06T14:48:14.163Z,1.30
2023-05-06T14:50:41.192Z,0.98
2023-05-06T14:53:07.667Z,1.70
2023-05-06T14:55:34.103Z,2.63
2023-05-06T14:58:03.758Z,3.85
2023-05-06T15:00:31.089Z,1.90
2023-05-06T15:02:57.584Z,5.50
2023-05-06T15:05:26.235Z,1.40
2023-05-06T15:07:52.691Z,3.15
2023-05-06T15:10:27.048Z,1.95
2023-05-06T15:12:53.532Z,1.10
2023-05-06T15:15:20.324Z,1.40
2023-05-06T15:17:47.004Z,5.10
2023-05-06T15:20:13.638Z,3.13
2023-05-06T15:22:40.325Z,4.10
2023-05-06T15:25:09.411Z,1.77
2023-05-06T15:27:40.901Z,1.40
2023-05-06T15:30:10.851Z,1.40
2023-05-06T15:32:37.398Z,1.48
2023-05-06T15:35:04.888Z,1.10
2023-05-06T15:37:34.367Z,1.00
2023-05-06T15:40:01.050Z,1.10
2023-05-06T15:42:27.652Z,1.30
2023-05-06T15:44:55.021Z,0.90
2023-05-06T15:47:27.487Z,1.05
2023-05-06T15:49:54.972Z,1.00
2023-05-06T15:52:22.557Z,1.15
2023-05-06T15:54:50.083Z,0.90
2023-05-06T15:57:17.167Z,1.20
2023-05-06T15:59:43.597Z,1.00
2023-05-06T16:04:41.116Z,0.80
2023-05-06T16:07:07.692Z,1.08
2023-05-06T16:09:35.168Z,1.10
2023-05-06T16:12:01.647Z,0.80
2023-05-06T16:14:28.095Z,0.93
2023-05-06T16:16:54.618Z,1.00
2023-05-06T16:19:21.149Z,0.90
2023-05-06T16:21:48.355Z,0.70
2023-05-06T16:24:14.969Z,0.80
2023-05-06T16:26:41.549Z,0.95
2023-05-06T16:29:08.041Z,0.80
2023-05-06T16:31:34.681Z,0.85
2023-05-06T16:34:01.234Z,0.98
2023-05-06T16:36:28.895Z,1.00
2023-05-06T16:38:55.527Z,1.00
2023-05-06T16:41:22.559Z,0.98
2023-05-06T16:43:49.033Z,0.80
2023-05-06T16:46:15.624Z,1.00
2023-05-06T16:48:42.255Z,1.20
2023-05-06T16:51:10.332Z,0.90
2023-05-06T16:53:36.811Z,1.33
2023-05-06T16:56:03.713Z,1.20
2023-05-06T16:58:31.369Z,1.08
2023-05-06T17:00:57.831Z,1.00
2023-05-06T17:03:27.593Z,1.30
2023-05-06T17:05:54.515Z,1.10
2023-05-06T17:08:27.248Z,1.10
2023-05-06T17:10:53.823Z,0.90
2023-05-06T17:13:23.513Z,1.40
2023-05-06T17:15:51.332Z,0.93
2023-05-06T17:18:18.519Z,1.08
2023-05-06T17:20:54.910Z,1.10
2023-05-06T17:23:22.057Z,9.63
2023-05-06T17:25:48.570Z,2.38
2023-05-06T17:28:18.002Z,0.95
2023-05-06T17:30:47.176Z,1.33
2023-05-06T17:33:14.711Z,0.95
2023-05-06T17:35:41.156Z,0.90
2023-05-06T17:38:07.894Z,2.10
2023-05-06T17:40:34.522Z,1.42
2023-05-06T17:43:11.246Z,0.90
2023-05-06T17:45:37.687Z,0.90
2023-05-06T17:48:04.410Z,0.90
2023-05-06T17:50:31.907Z,0.90
2023-05-06T17:52:58.343Z,0.90
2023-05-06T17:55:25.094Z,0.82
2023-05-06T17:57:52.777Z,1.00
2023-05-06T18:00:19.525Z,1.00
2023-05-06T18:02:46.278Z,0.90
2023-05-06T18:05:13.744Z,8.13
2023-05-06T18:07:40.953Z,5.28
2023-05-06T18:10:08.018Z,4.45
2023-05-06T18:12:34.555Z,1.40
2023-05-06T18:15:01.299Z,2.30
2023-05-06T18:17:27.818Z,1.25
2023-05-06T18:19:54.388Z,0.95
2023-05-06T18:22:20.859Z,1.10
2023-05-06T18:24:47.418Z,1.00
2023-05-06T18:27:13.874Z,0.90
2023-05-06T18:29:41.415Z,1.10
2023-05-06T18:32:09.054Z,1.00
2023-05-06T18:34:35.675Z,1.20
2023-05-06T18:37:03.779Z,1.02
2023-05-06T18:39:30.716Z,0.93
2023-05-06T18:41:57.240Z,1.10
2023-05-06T18:44:23.710Z,1.25
2023-05-06T18:46:50.227Z,1.20
2023-05-06T18:49:16.678Z,1.17
2023-05-06T18:51:45.247Z,0.85
2023-05-06T18:54:13.431Z,1.10
2023-05-06T18:56:42.633Z,0.98
2023-05-06T18:59:09.164Z,1.08
2023-05-06T19:01:36.661Z,1.00
2023-05-06T19:04:03.750Z,1.08
2023-05-06T19:06:31.533Z,0.90
2023-05-06T19:09:11.371Z,1.17
2023-05-06T19:11:37.905Z,1.10
2023-05-06T19:14:05.480Z,1.13
2023-05-06T19:16:33.034Z,1.00
2023-05-06T19:19:02.718Z,1.00
2023-05-06T19:21:29.240Z,1.10
2023-05-06T19:24:04.488Z,0.95
2023-05-06T19:26:31.017Z,1.67
2023-05-06T19:28:57.494Z,1.20
2023-05-06T19:31:25.765Z,1.33
2023-05-06T19:33:52.416Z,1.38
2023-05-06T19:36:18.838Z,1.48
2023-05-06T19:38:45.285Z,1.30
2023-05-06T19:41:11.834Z,3.28
2023-05-06T19:43:45.282Z,2.10
2023-05-06T19:46:12.186Z,1.30
2023-05-06T19:48:46.164Z,1.70
2023-05-06T19:51:16.469Z,7.60
2023-05-06T19:53:43.036Z,9.80
2023-05-06T19:56:11.060Z,4.47
2023-05-06T19:58:38.041Z,2.28
2023-05-06T20:01:04.595Z,1.23
2023-05-06T20:03:42.210Z,1.50
2023-05-06T20:06:08.836Z,3.70
2023-05-06T20:08:35.565Z,7.07
2023-05-06T20:11:02.197Z,14.73
2023-05-06T20:13:28.797Z,4.20
2023-05-06T20:15:55.723Z,7.43
2023-05-06T20:18:22.791Z,7.47
2023-05-06T20:20:50.628Z,4.35
2023-05-06T20:23:17.173Z,4.53
2023-05-06T20:25:43.959Z,3.70
2023-05-06T20:28:10.761Z,2.60
2023-05-06T20:30:38.357Z,2.40
2023-05-06T20:33:18.073Z,1.42
2023-05-06T20:35:44.647Z,1.13
2023-05-06T20:38:11.176Z,1.20
2023-05-06T20:40:37.761Z,1.20
2023-05-06T20:43:04.280Z,1.20
2023-05-06T20:45:31.466Z,1.30
2023-05-06T20:47:58.404Z,1.10
2023-05-06T20:50:24.927Z,1.23
2023-05-06T20:52:52.904Z,3.28
2023-05-06T20:55:23.064Z,3.97
2023-05-06T20:57:49.949Z,2.53
2023-05-06T21:00:16.599Z,1.50
2023-05-06T21:02:43.209Z,1.10
2023-05-06T21:05:13.297Z,1.35
2023-05-06T21:07:40.140Z,1.15
2023-05-06T21:10:06.983Z,1.35
2023-05-06T21:12:33.715Z,1.30
2023-05-06T21:15:00.536Z,1.30
2023-05-06T21:17:27.238Z,1.50
2023-05-06T21:19:53.923Z,1.25
2023-05-06T21:22:24.041Z,1.10
2023-05-06T21:24:51.066Z,1.33
2023-05-06T21:27:17.752Z,1.55
2023-05-06T21:29:45.458Z,1.20
2023-05-06T21:32:12.113Z,1.10
2023-05-06T21:34:38.713Z,1.20
2023-05-06T21:37:05.264Z,1.40
2023-05-06T21:39:31.755Z,1.27
2023-05-06T21:41:58.508Z,1.10
2023-05-06T21:44:25.010Z,1.10
2023-05-06T21:46:51.562Z,1.30
2023-05-06T21:49:19.425Z,1.00
2023-05-06T21:51:45.881Z,0.80
2023-05-06T21:54:12.377Z,1.00
2023-05-06T21:56:40.898Z,1.00
2023-05-06T21:59:07.937Z,1.13
2023-05-06T22:01:36.301Z,1.40
2023-05-06T22:04:04.825Z,1.23
2023-05-06T22:06:31.461Z,1.27
2023-05-06T22:08:57.913Z,1.33
2023-05-06T22:11:24.785Z,1.05
2023-05-06T22:13:51.334Z,1.30
2023-05-06T22:16:29.667Z,1.17
2023-05-06T22:18:59.724Z,1.30
2023-05-06T22:21:28.696Z,1.10
2023-05-06T22:23:55.138Z,1.05
2023-05-06T22:26:21.876Z,1.10
2023-05-06T22:28:48.378Z,1.30
2023-05-06T22:31:15.584Z,1.55
2023-05-06T22:33:42.291Z,1.27
2023-05-06T22:36:08.820Z,1.30
2023-05-06T22:38:35.285Z,1.48
2023-05-06T22:41:04.977Z,1.52
2023-05-06T22:43:31.431Z,1.48
2023-05-06T22:45:57.950Z,1.60
2023-05-06T22:48:24.755Z,1.42
2023-05-06T22:50:51.216Z,1.52
2023-05-06T22:53:17.668Z,1.70
2023-05-06T22:55:45.402Z,1.80
2023-05-06T22:58:15.086Z,1.73
2023-05-06T23:00:43.224Z,1.80
2023-05-06T23:03:11.765Z,2.00
2023-05-06T23:05:38.252Z,1.80
2023-05-06T23:08:04.926Z,2.00
2023-05-06T23:10:32.452Z,2.15
2023-05-06T23:13:03.002Z,1.88
2023-05-06T23:15:30.637Z,2.22
2023-05-06T23:17:57.129Z,2.10
2023-05-06T23:20:30.786Z,1.80
2023-05-06T23:22:57.279Z,2.30
2023-05-06T23:25:24.240Z,1.90
2023-05-06T23:27:50.749Z,2.33
2023-05-06T23:30:20.414Z,1.88
2023-05-06T23:32:46.962Z,2.05
2023-05-06T23:35:13.684Z,2.20
2023-05-06T23:37:40.275Z,2.85
2023-05-06T23:40:07.763Z,2.60
2023-05-06T23:42:34.218Z,2.55
2023-05-06T23:45:00.887Z,2.83
2023-05-06T23:47:27.464Z,2.00
2023-05-06T23:49:53.961Z,2.40
2023-05-06T23:52:21.299Z,2.85
2023-05-06T23:54:47.812Z,2.72
2023-05-06T23:57:14.298Z,2.45
2023-05-06T23:59:40.743Z,2.67
